createdAt,value
2019-04-06T00:00:51.419Z,44.10
2019-04-06T00:03:18.901Z,41.13
2019-04-06T00:05:46.411Z,42.23
2019-04-06T00:08:13.915Z,43.77
2019-04-06T00:10:41.425Z,43.97
2019-04-06T00:13:08.912Z,43.77
2019-04-06T00:15:36.431Z,43.87
2019-04-06T00:18:03.938Z,43.93
2019-04-06T00:20:31.423Z,44.17
2019-04-06T00:22:58.908Z,43.47
2019-04-06T00:25:26.438Z,43.37
2019-04-06T00:27:53.962Z,43.17
2019-04-06T00:30:21.440Z,45.20
2019-04-06T00:32:55.200Z,43.97
2019-04-06T00:35:22.664Z,44.67
2019-04-06T00:37:50.146Z,43.43
2019-04-06T00:40:17.683Z,45.60
2019-04-06T00:42:45.170Z,44.10
2019-04-06T00:45:12.682Z,45.33
2019-04-06T00:47:40.156Z,44.63
2019-04-06T00:50:07.672Z,43.30
2019-04-06T00:52:35.329Z,41.53
2019-04-06T00:55:02.812Z,43.30
2019-04-06T00:57:30.316Z,43.33
2019-04-06T00:59:57.825Z,44.63
2019-04-06T01:02:25.346Z,46.13
2019-04-06T01:04:52.824Z,45.53
2019-04-06T01:07:20.308Z,45.30
2019-04-06T01:09:47.823Z,42.53
2019-04-06T01:12:15.336Z,43.90
2019-04-06T01:14:42.819Z,43.07
2019-04-06T01:17:10.337Z,43.90
2019-04-06T01:19:37.824Z,44.43
2019-04-06T01:22:05.346Z,41.60
2019-04-06T01:24:32.823Z,42.57
2019-04-06T01:27:00.311Z,43.47
2019-04-06T01:29:27.826Z,45.33
2019-04-06T01:31:55.339Z,44.90
2019-04-06T01:34:22.833Z,42.43
2019-04-06T01:36:50.317Z,43.27
2019-04-06T01:39:17.826Z,44.67
2019-04-06T01:41:45.385Z,43.10
2019-04-06T01:44:12.830Z,43.00
2019-04-06T01:46:40.355Z,42.13
2019-04-06T01:49:07.859Z,43.73
2019-04-06T01:51:35.374Z,44.67
2019-04-06T01:54:02.939Z,43.00
2019-04-06T01:56:30.343Z,43.50
2019-04-06T01:58:57.865Z,42.87
2019-04-06T02:01:25.346Z,41.23
2019-04-06T02:03:52.849Z,42.67
2019-04-06T02:06:20.336Z,43.30
2019-04-06T02:08:47.824Z,44.03
2019-04-06T02:11:15.304Z,42.17
2019-04-06T02:13:42.815Z,43.93
2019-04-06T02:16:10.260Z,42.57
2019-04-06T02:18:37.747Z,43.13
2019-04-06T02:21:05.238Z,42.20
2019-04-06T02:23:32.697Z,44.73
2019-04-06T02:26:00.161Z,42.67
2019-04-06T02:28:27.685Z,44.93
2019-04-06T02:31:07.229Z,41.70
2019-04-06T02:33:40.569Z,42.50
2019-04-06T02:36:13.887Z,42.20
2019-04-06T02:38:43.869Z,43.07
2019-04-06T02:41:29.740Z,43.17
2019-04-06T02:43:57.359Z,40.97
2019-04-06T02:46:24.841Z,41.93
2019-04-06T02:48:52.423Z,42.83
2019-04-06T02:51:19.743Z,42.87
2019-04-06T02:53:47.238Z,41.57
2019-04-06T02:56:14.803Z,42.10
2019-04-06T02:58:42.224Z,42.97
2019-04-06T03:01:09.684Z,45.45
2019-04-06T03:03:37.161Z,43.53
2019-04-06T03:06:04.615Z,41.80
2019-04-06T03:08:32.100Z,41.20
2019-04-06T03:10:59.569Z,42.83
2019-04-06T03:13:27.044Z,41.03
2019-04-06T03:15:54.524Z,41.53
2019-04-06T03:18:22.009Z,41.70
2019-04-06T03:20:49.518Z,40.00
2019-04-06T03:23:16.931Z,42.07
2019-04-06T03:25:44.533Z,43.37
2019-04-06T03:28:11.939Z,39.60
2019-04-06T03:30:39.370Z,42.53
2019-04-06T03:33:06.831Z,38.63
2019-04-06T03:35:34.325Z,43.03
2019-04-06T03:38:01.808Z,41.43
2019-04-06T03:40:29.292Z,43.60
2019-04-06T03:42:56.763Z,41.67
2019-04-06T03:45:24.231Z,40.63
2019-04-06T03:47:51.719Z,42.77
2019-04-06T03:50:19.275Z,41.70
2019-04-06T03:52:46.715Z,42.27
2019-04-06T03:55:14.170Z,40.10
2019-04-06T03:57:41.825Z,40.10
2019-04-06T04:00:09.011Z,42.23
2019-04-06T04:02:36.414Z,41.10
2019-04-06T04:05:04.034Z,39.60
2019-04-06T04:07:31.277Z,40.33
2019-04-06T04:09:58.723Z,41.67
2019-04-06T04:12:26.144Z,40.13
2019-04-06T04:14:53.745Z,42.27
2019-04-06T04:17:21.475Z,40.57
2019-04-06T04:19:48.754Z,41.83
2019-04-06T04:22:16.174Z,40.70
2019-04-06T04:24:43.618Z,43.00
2019-04-06T04:27:11.034Z,41.47
2019-04-06T04:29:38.441Z,40.60
2019-04-06T04:32:05.872Z,39.60
2019-04-06T04:34:33.280Z,41.37
2019-04-06T04:37:00.739Z,38.70
2019-04-06T04:39:28.119Z,39.57
2019-04-06T04:41:55.589Z,40.57
2019-04-06T04:44:23.002Z,40.80
2019-04-06T04:46:50.463Z,38.73
2019-04-06T04:49:17.892Z,40.93
2019-04-06T04:51:45.350Z,40.30
2019-04-06T04:54:12.764Z,38.47
2019-04-06T04:56:40.203Z,40.93
2019-04-06T04:59:07.702Z,40.37
2019-04-06T05:01:35.053Z,40.67
2019-04-06T05:04:02.488Z,38.47
2019-04-06T05:06:30.073Z,41.63
2019-04-06T05:08:57.325Z,42.67
2019-04-06T05:11:25.735Z,41.47
2019-04-06T05:13:53.159Z,42.17
2019-04-06T05:16:20.568Z,40.47
2019-04-06T05:18:48.002Z,39.23
2019-04-06T05:21:15.410Z,40.30
2019-04-06T05:23:42.836Z,39.50
2019-04-06T05:26:10.238Z,39.33
2019-04-06T05:28:37.690Z,39.63
2019-04-06T05:31:05.090Z,41.17
2019-04-06T05:33:32.533Z,40.37
2019-04-06T05:35:59.963Z,41.70
2019-04-06T05:38:27.397Z,41.57
2019-04-06T05:40:54.815Z,40.83
2019-04-06T05:43:22.254Z,40.33
2019-04-06T05:45:49.679Z,38.50
2019-04-06T05:48:17.123Z,39.87
2019-04-06T05:50:44.527Z,39.60
2019-04-06T05:53:11.946Z,39.90
2019-04-06T05:55:39.380Z,40.13
2019-04-06T05:58:09.783Z,41.33
2019-04-06T06:00:34.215Z,41.43
2019-04-06T06:03:01.622Z,39.20
2019-04-06T06:05:29.049Z,41.50
2019-04-06T06:07:56.479Z,41.43
2019-04-06T06:10:23.888Z,41.17
2019-04-06T06:12:51.317Z,42.03
2019-04-06T06:15:18.741Z,41.40
2019-04-06T06:17:46.181Z,38.60
2019-04-06T06:20:13.788Z,40.80
2019-04-06T06:22:41.037Z,41.77
2019-04-06T06:25:08.583Z,39.07
2019-04-06T06:27:35.886Z,38.97
2019-04-06T06:30:03.401Z,40.40
2019-04-06T06:32:31.423Z,39.63
2019-04-06T06:34:58.162Z,39.53
2019-04-06T06:37:25.590Z,37.97
2019-04-06T06:39:53.024Z,38.90
2019-04-06T06:42:20.426Z,36.40
2019-04-06T06:44:47.857Z,39.90
2019-04-06T06:47:15.452Z,38.77
2019-04-06T06:49:42.705Z,37.17
2019-04-06T06:52:10.339Z,37.10
2019-04-06T06:54:37.599Z,38.30
2019-04-06T06:57:05.110Z,38.37
2019-04-06T06:59:32.539Z,37.97
2019-04-06T07:02:00.147Z,37.00
2019-04-06T07:04:27.367Z,36.93
2019-04-06T07:06:54.812Z,36.53
2019-04-06T07:09:22.262Z,37.10
2019-04-06T07:11:49.686Z,35.27
2019-04-06T07:14:17.430Z,34.00
2019-04-06T07:16:44.650Z,35.90
2019-04-06T07:19:12.062Z,35.73
2019-04-06T07:21:39.489Z,35.30
2019-04-06T07:24:07.058Z,34.20
2019-04-06T07:26:34.606Z,32.67
2019-04-06T07:29:01.776Z,34.17
2019-04-06T07:31:29.189Z,34.50
2019-04-06T07:33:56.632Z,34.83
2019-04-06T07:36:24.057Z,35.43
2019-04-06T07:38:51.554Z,33.87
2019-04-06T07:41:18.930Z,35.23
2019-04-06T07:43:46.354Z,32.80
2019-04-06T07:46:13.779Z,31.47
2019-04-06T07:48:41.219Z,31.90
2019-04-06T07:51:08.638Z,32.27
2019-04-06T07:53:36.090Z,31.23
2019-04-06T07:56:03.564Z,27.63
2019-04-06T07:58:31.287Z,31.50
2019-04-06T08:00:58.455Z,31.63
2019-04-06T08:03:27.121Z,29.43
2019-04-06T08:05:54.536Z,27.90
2019-04-06T08:08:21.948Z,28.13
2019-04-06T08:10:49.388Z,28.20
2019-04-06T08:13:16.803Z,28.70
2019-04-06T08:15:44.295Z,27.13
2019-04-06T08:18:11.679Z,27.80
2019-04-06T08:20:39.125Z,26.30
2019-04-06T08:23:06.622Z,24.90
2019-04-06T08:25:33.987Z,27.50
2019-04-06T08:28:01.401Z,25.90
2019-04-06T08:30:28.832Z,27.13
2019-04-06T08:32:56.242Z,26.40
2019-04-06T08:35:26.010Z,26.10
2019-04-06T08:37:51.206Z,25.83
2019-04-06T08:40:18.704Z,24.97
2019-04-06T08:42:46.012Z,24.13
2019-04-06T08:45:14.170Z,23.60
2019-04-06T08:47:40.825Z,24.67
2019-04-06T08:50:08.288Z,21.63
2019-04-06T08:52:35.716Z,22.63
2019-04-06T08:55:03.160Z,24.43
2019-04-06T08:57:30.606Z,20.87
2019-04-06T08:59:58.072Z,21.60
2019-04-06T09:02:25.513Z,21.20
2019-04-06T09:04:53.117Z,20.77
2019-04-06T09:07:20.637Z,21.77
2019-04-06T09:09:48.091Z,19.33
2019-04-06T09:12:15.541Z,19.43
2019-04-06T09:14:43.113Z,21.53
2019-04-06T09:17:10.660Z,22.30
2019-04-06T09:19:38.089Z,22.27
2019-04-06T09:22:05.521Z,22.00
2019-04-06T09:24:32.936Z,20.40
2019-04-06T09:27:00.430Z,18.77
2019-04-06T09:29:27.827Z,20.70
2019-04-06T09:31:55.256Z,18.60
2019-04-06T09:34:22.690Z,19.43
2019-04-06T09:36:50.104Z,19.90
2019-04-06T09:39:17.545Z,21.40
2019-04-06T09:41:44.985Z,21.00
2019-04-06T09:44:12.781Z,20.93
2019-04-06T09:46:57.837Z,19.53
2019-04-06T09:49:43.618Z,19.83
2019-04-06T09:52:16.917Z,20.10
2019-04-06T09:55:02.289Z,18.97
2019-04-06T09:57:41.693Z,18.43
2019-04-06T10:00:09.316Z,19.93
2019-04-06T10:02:54.854Z,19.60
2019-04-06T10:05:25.053Z,18.20
2019-04-06T10:08:10.809Z,19.60
2019-04-06T10:10:40.901Z,19.17
2019-04-06T10:13:11.119Z,18.73
2019-04-06T10:15:56.996Z,13.07
2019-04-06T10:18:24.500Z,15.37
2019-04-06T10:21:00.754Z,14.30
2019-04-06T10:23:46.406Z,13.00
2019-04-06T10:26:13.811Z,13.40
2019-04-06T10:28:41.280Z,12.67
2019-04-06T10:31:08.688Z,12.90
2019-04-06T10:33:45.164Z,15.57
2019-04-06T10:36:18.654Z,13.80
2019-04-06T10:39:01.415Z,13.83
2019-04-06T10:41:43.995Z,13.67
2019-04-06T10:44:20.400Z,12.73
2019-04-06T10:47:05.890Z,12.63
2019-04-06T10:49:51.625Z,10.63
2019-04-06T10:52:30.871Z,11.07
2019-04-06T10:55:16.578Z,10.43
2019-04-06T10:57:43.983Z,12.63
2019-04-06T11:00:29.927Z,12.27
2019-04-06T11:02:57.130Z,11.13
2019-04-06T11:05:30.388Z,9.93
2019-04-06T11:08:00.876Z,11.97
2019-04-06T11:10:31.176Z,11.80
2019-04-06T11:13:03.970Z,11.70
2019-04-06T11:15:40.256Z,11.83
2019-04-06T11:18:22.930Z,12.23
2019-04-06T11:20:50.356Z,12.57
2019-04-06T11:23:20.550Z,12.67
2019-04-06T11:25:56.765Z,13.97
2019-04-06T11:28:24.217Z,13.60
2019-04-06T11:30:51.643Z,13.17
2019-04-06T11:33:27.858Z,12.50
2019-04-06T11:36:07.257Z,12.13
2019-04-06T11:38:52.790Z,12.50
2019-04-06T11:41:26.331Z,11.83
2019-04-06T11:43:56.705Z,12.83
2019-04-06T11:46:24.461Z,11.27
2019-04-06T11:49:10.005Z,11.70
2019-04-06T11:51:46.704Z,12.40
2019-04-06T11:54:25.875Z,12.67
2019-04-06T11:57:11.398Z,12.27
2019-04-06T11:59:38.825Z,12.63
2019-04-06T12:02:24.555Z,13.13
2019-04-06T12:04:54.646Z,12.73
2019-04-06T12:07:24.993Z,12.80
2019-04-06T12:10:01.368Z,12.83
2019-04-06T12:12:40.873Z,13.10
2019-04-06T12:15:17.273Z,13.07
2019-04-06T12:17:44.708Z,13.97
2019-04-06T12:20:20.880Z,13.07
2019-04-06T12:22:56.995Z,13.80
2019-04-06T12:25:33.162Z,13.43
2019-04-06T12:28:09.193Z,13.37
2019-04-06T12:30:39.432Z,13.80
2019-04-06T12:33:06.707Z,13.80
2019-04-06T12:35:49.153Z,14.37
2019-04-06T12:38:28.431Z,14.57
2019-04-06T12:40:56.310Z,13.10
2019-04-06T12:43:23.367Z,13.73
2019-04-06T12:45:59.967Z,14.17
2019-04-06T12:48:33.478Z,14.90
2019-04-06T12:51:06.601Z,13.93
2019-04-06T12:53:52.249Z,14.17
2019-04-06T12:56:28.187Z,13.80
2019-04-06T12:59:10.830Z,15.07
2019-04-06T13:01:38.256Z,15.03
2019-04-06T13:04:24.510Z,15.17
2019-04-06T13:07:03.972Z,15.47
2019-04-06T13:09:31.616Z,14.80
2019-04-06T13:12:13.657Z,15.87
2019-04-06T13:14:53.131Z,16.00
2019-04-06T13:17:23.543Z,16.43
2019-04-06T13:19:53.392Z,14.70
2019-04-06T13:22:39.591Z,15.53
2019-04-06T13:25:06.657Z,15.20
2019-04-06T13:27:36.779Z,16.30
2019-04-06T13:30:13.063Z,15.60
2019-04-06T13:32:42.910Z,15.63
2019-04-06T13:35:13.190Z,16.63
2019-04-06T13:37:40.644Z,16.97
2019-04-06T13:40:10.581Z,15.23
2019-04-06T13:42:37.985Z,16.40
2019-04-06T13:45:23.687Z,16.70
2019-04-06T13:47:51.212Z,16.57
2019-04-06T13:50:34.074Z,15.53
2019-04-06T13:53:19.633Z,16.13
2019-04-06T13:55:52.636Z,16.47
2019-04-06T13:58:20.121Z,16.50
2019-04-06T14:00:47.780Z,16.07
2019-04-06T14:03:23.763Z,16.30
2019-04-06T14:05:53.890Z,16.60
2019-04-06T14:08:21.301Z,16.67
2019-04-06T14:10:57.798Z,16.13
2019-04-06T14:13:43.617Z,16.37
2019-04-06T14:16:17.050Z,16.33
2019-04-06T14:19:02.880Z,17.13
2019-04-06T14:21:42.466Z,16.90
2019-04-06T14:24:28.478Z,16.90
2019-04-06T14:26:58.611Z,17.30
2019-04-06T14:29:25.685Z,17.13
2019-04-06T14:31:55.818Z,17.10
2019-04-06T14:34:25.852Z,14.33
2019-04-06T14:36:56.258Z,16.50
2019-04-06T14:39:26.704Z,15.80
2019-04-06T14:41:56.769Z,16.20
2019-04-06T14:44:42.331Z,15.37
2019-04-06T14:47:27.755Z,16.23
2019-04-06T14:50:10.381Z,15.40
2019-04-06T14:52:55.601Z,17.40
2019-04-06T14:55:25.761Z,16.47
2019-04-06T14:58:02.086Z,17.47
2019-04-06T15:00:41.501Z,16.43
2019-04-06T15:03:17.994Z,17.97
2019-04-06T15:05:52.807Z,17.47
2019-04-06T15:08:37.032Z,15.90
2019-04-06T15:11:04.486Z,16.73
2019-04-06T15:13:49.966Z,16.33
2019-04-06T15:16:26.672Z,18.30
2019-04-06T15:18:53.790Z,16.67
2019-04-06T15:21:30.283Z,17.03
2019-04-06T15:24:00.559Z,17.57
2019-04-06T15:26:36.779Z,16.20
2019-04-06T15:29:04.229Z,17.57
2019-04-06T15:31:49.890Z,17.43
2019-04-06T15:34:11.032Z,17.20
2019-04-06T15:36:38.466Z,17.13
2019-04-06T15:39:05.916Z,17.10
2019-04-06T15:41:33.328Z,17.87
2019-04-06T15:44:12.509Z,18.10
2019-04-06T15:46:40.230Z,18.73
2019-04-06T15:49:13.686Z,17.00
2019-04-06T15:52:09.615Z,17.67
2019-04-06T15:54:26.406Z,17.23
2019-04-06T15:56:53.883Z,16.53
2019-04-06T15:59:21.256Z,17.57
2019-04-06T16:02:03.893Z,18.37
2019-04-06T16:04:49.582Z,17.73
2019-04-06T16:07:29.729Z,16.77
2019-04-06T16:09:56.635Z,18.63
2019-04-06T16:12:23.838Z,17.77
2019-04-06T16:14:56.633Z,18.47
2019-04-06T16:17:26.844Z,18.23
2019-04-06T16:20:00.526Z,19.03
2019-04-06T16:22:39.997Z,18.63
2019-04-06T16:25:10.663Z,17.87
2019-04-06T16:27:43.746Z,18.70
2019-04-06T16:30:23.016Z,19.73
2019-04-06T16:32:50.764Z,20.33
2019-04-06T16:35:36.478Z,20.40
2019-04-06T16:38:06.649Z,24.47
2019-04-06T16:40:34.061Z,21.50
2019-04-06T16:43:11.004Z,18.33
2019-04-06T16:45:43.788Z,19.47
2019-04-06T16:48:29.139Z,19.90
2019-04-06T16:51:08.461Z,17.87
2019-04-06T16:53:38.346Z,18.47
2019-04-06T16:56:24.349Z,21.27
2019-04-06T16:59:06.586Z,20.53
2019-04-06T17:01:36.908Z,21.20
2019-04-06T17:04:10.214Z,22.33
2019-04-06T17:06:37.291Z,26.13
2019-04-06T17:09:04.924Z,20.87
2019-04-06T17:11:44.192Z,21.50
2019-04-06T17:14:17.391Z,22.60
2019-04-06T17:16:44.822Z,19.63
2019-04-06T17:19:17.937Z,21.33
2019-04-06T17:21:48.045Z,22.03
2019-04-06T17:24:21.196Z,23.20
2019-04-06T17:27:03.885Z,22.30
2019-04-06T17:29:49.809Z,22.93
2019-04-06T17:32:19.867Z,22.40
2019-04-06T17:35:02.723Z,24.10
2019-04-06T17:37:35.875Z,21.67
2019-04-06T17:40:12.293Z,20.50
2019-04-06T17:42:48.823Z,20.57
2019-04-06T17:45:28.682Z,21.63
2019-04-06T17:48:14.724Z,20.90
2019-04-06T17:50:54.511Z,21.10
2019-04-06T17:53:30.820Z,21.50
2019-04-06T17:56:17.305Z,20.53
2019-04-06T17:58:47.428Z,20.47
2019-04-06T18:01:33.037Z,20.00
2019-04-06T18:04:00.632Z,20.57
2019-04-06T18:06:33.642Z,21.60
2019-04-06T18:09:19.704Z,20.93
2019-04-06T18:11:52.987Z,20.53
2019-04-06T18:14:20.407Z,21.17
2019-04-06T18:16:47.847Z,21.53
2019-04-06T18:19:16.256Z,22.90
2019-04-06T18:21:43.690Z,22.00
2019-04-06T18:24:11.204Z,21.73
2019-04-06T18:26:38.555Z,24.30
2019-04-06T18:29:06.164Z,22.77
2019-04-06T18:31:51.432Z,24.30
2019-04-06T18:34:18.866Z,23.33
2019-04-06T18:36:46.293Z,24.10
2019-04-06T18:39:13.920Z,24.63
2019-04-06T18:41:41.144Z,25.20
2019-04-06T18:44:09.077Z,24.77
2019-04-06T18:46:36.033Z,27.10
2019-04-06T18:49:03.426Z,25.40
2019-04-06T18:51:30.866Z,25.40
2019-04-06T18:53:58.519Z,30.10
2019-04-06T18:56:25.717Z,29.33
2019-04-06T18:58:53.548Z,29.53
2019-04-06T19:01:20.614Z,25.60
2019-04-06T19:03:48.000Z,25.20
2019-04-06T19:06:16.224Z,26.30
2019-04-06T19:08:42.844Z,26.20
2019-04-06T19:11:10.292Z,26.97
2019-04-06T19:13:38.539Z,28.53
2019-04-06T19:16:05.474Z,27.60
2019-04-06T19:18:33.378Z,26.63
2019-04-06T19:21:00.350Z,26.57
2019-04-06T19:23:27.792Z,25.83
2019-04-06T19:25:55.199Z,26.93
2019-04-06T19:28:23.106Z,28.00
2019-04-06T19:30:50.059Z,30.97
2019-04-06T19:33:23.379Z,27.50
2019-04-06T19:35:44.952Z,28.13
2019-04-06T19:38:12.415Z,25.83
2019-04-06T19:40:39.822Z,27.57
2019-04-06T19:43:07.689Z,25.10
2019-04-06T19:45:34.724Z,27.57
2019-04-06T19:48:02.176Z,25.73
2019-04-06T19:50:29.578Z,26.70
2019-04-06T19:52:57.486Z,26.20
2019-04-06T19:55:24.599Z,26.53
2019-04-06T19:57:51.864Z,28.13
2019-04-06T20:00:19.287Z,25.73
2019-04-06T20:02:47.215Z,27.03
2019-04-06T20:05:14.177Z,26.23
2019-04-06T20:07:41.571Z,27.23
2019-04-06T20:10:09.028Z,25.27
2019-04-06T20:12:36.440Z,26.87
2019-04-06T20:15:03.994Z,26.03
2019-04-06T20:17:31.288Z,25.97
2019-04-06T20:19:58.723Z,28.10
2019-04-06T20:22:26.156Z,26.83
2019-04-06T20:24:53.618Z,27.27
2019-04-06T20:27:21.048Z,27.30
2019-04-06T20:29:48.695Z,26.97
2019-04-06T20:32:16.008Z,26.57
2019-04-06T20:34:43.555Z,27.70
2019-04-06T20:37:10.777Z,28.33
2019-04-06T20:39:38.254Z,27.70
2019-04-06T20:42:05.674Z,27.83
2019-04-06T20:44:33.261Z,29.07
2019-04-06T20:47:00.654Z,29.93
2019-04-06T20:49:28.098Z,29.07
2019-04-06T20:51:55.541Z,29.13
2019-04-06T20:54:23.047Z,28.20
2019-04-06T20:56:56.485Z,30.23
2019-04-06T20:59:18.309Z,31.13
2019-04-06T21:01:45.338Z,28.90
2019-04-06T21:04:12.759Z,29.93
2019-04-06T21:06:40.317Z,27.97
2019-04-06T21:09:07.738Z,29.03
2019-04-06T21:11:35.733Z,29.17
2019-04-06T21:14:03.310Z,30.17
2019-04-06T21:16:30.188Z,29.20
2019-04-06T21:18:57.618Z,29.70
2019-04-06T21:21:25.896Z,28.53
2019-04-06T21:23:52.979Z,28.97
2019-04-06T21:26:20.253Z,28.60
2019-04-06T21:28:47.732Z,28.33
2019-04-06T21:31:15.190Z,29.20
2019-04-06T21:33:45.041Z,27.00
2019-04-06T21:36:10.654Z,28.33
2019-04-06T21:38:37.715Z,28.17
2019-04-06T21:41:05.066Z,29.17
2019-04-06T21:43:32.814Z,28.27
2019-04-06T21:46:00.081Z,27.63
2019-04-06T21:48:27.241Z,28.40
2019-04-06T21:50:54.877Z,29.90
2019-04-06T21:53:22.124Z,30.53
2019-04-06T21:56:00.583Z,28.90
2019-04-06T21:58:17.660Z,28.30
2019-04-06T22:00:51.163Z,29.60
2019-04-06T22:03:18.019Z,29.27
2019-04-06T22:05:45.537Z,29.60
2019-04-06T22:08:13.115Z,29.00
2019-04-06T22:10:40.281Z,27.40
2019-04-06T22:13:08.267Z,29.97
2019-04-06T22:15:35.129Z,28.10
2019-04-06T22:18:02.559Z,26.17
2019-04-06T22:20:30.085Z,26.50
2019-04-06T22:22:57.519Z,27.77
2019-04-06T22:25:25.237Z,29.07
2019-04-06T22:27:52.885Z,29.87
2019-04-06T22:30:19.907Z,29.27
2019-04-06T22:32:47.270Z,29.57
2019-04-06T22:35:14.853Z,27.87
2019-04-06T22:37:42.119Z,29.07
2019-04-06T22:40:09.637Z,26.93
2019-04-06T22:42:37.134Z,28.43
2019-04-06T22:45:07.303Z,29.40
2019-04-06T22:47:34.789Z,29.00
2019-04-06T22:50:02.644Z,26.77
2019-04-06T22:52:29.634Z,26.10
2019-04-06T22:54:57.132Z,26.10
2019-04-06T22:57:25.072Z,27.30
2019-04-06T22:59:52.000Z,27.63
2019-04-06T23:02:19.435Z,26.10
2019-04-06T23:04:51.232Z,25.40
2019-04-06T23:07:16.764Z,26.27
2019-04-06T23:09:44.189Z,26.43
2019-04-06T23:12:11.923Z,26.60
2019-04-06T23:14:39.337Z,25.90
2019-04-06T23:17:06.493Z,26.00
2019-04-06T23:19:33.945Z,27.37
2019-04-06T23:22:01.362Z,27.43
2019-04-06T23:24:28.855Z,30.13
2019-04-06T23:26:56.768Z,29.67
2019-04-06T23:29:24.632Z,26.67
2019-04-06T23:31:52.148Z,28.27
2019-04-06T23:34:19.484Z,29.67
2019-04-06T23:36:47.359Z,30.00
2019-04-06T23:39:14.357Z,31.10
2019-04-06T23:41:41.772Z,31.53
2019-04-06T23:44:09.219Z,31.20
2019-04-06T23:46:36.696Z,29.97
2019-04-06T23:49:04.095Z,31.97
2019-04-06T23:51:31.519Z,32.57
2019-04-06T23:53:58.933Z,31.43
2019-04-06T23:56:26.585Z,30.50
2019-04-06T23:58:53.810Z,31.67
